Time;durP1;ratioP1;P1;durP2;ratioP2;P2;SDS_P1;SDS_P2;PMS_P1;PMS_P2;Temp;Humidity;BMP_temperature;BMP_pressure;BME280_temperature;BME280_humidity;BME280_pressure;Samples;Min_cycle;Max_cycle;Signal;HPM_P1;HPM_P2
2023/08/18 00:01:57;;;;;;;6.13;5.33;;;22.10;99.90;;;;;;4944297;28;20498;-70
2023/08/18 00:04:24;;;;;;;5.33;4.80;;;22.10;99.90;;;;;;4957939;28;20459;-70
2023/08/18 00:06:53;;;;;;;6.17;5.57;;;22.00;99.90;;;;;;4945524;28;20450;-70
2023/08/18 00:09:19;;;;;;;6.53;5.37;;;22.10;99.90;;;;;;4945377;28;20474;-70
2023/08/18 00:11:46;;;;;;;8.43;5.17;;;22.00;99.90;;;;;;4946113;28;21146;-70
2023/08/18 00:14:14;;;;;;;4.93;4.43;;;22.10;99.90;;;;;;4949032;28;20917;-71
2023/08/18 00:16:40;;;;;;;5.10;4.47;;;21.90;99.90;;;;;;4946053;28;20628;-70
2023/08/18 00:19:07;;;;;;;6.37;4.63;;;21.90;99.90;;;;;;4940767;28;20469;-70
2023/08/18 00:21:34;;;;;;;8.50;6.70;;;21.80;99.90;;;;;;4951989;28;21392;-79
2023/08/18 00:24:03;;;;;;;12.77;6.67;;;21.80;99.90;;;;;;4947655;28;20493;-77
2023/08/18 00:26:30;;;;;;;38.10;6.20;;;21.70;99.90;;;;;;4946725;28;20577;-75
2023/08/18 00:28:57;;;;;;;31.87;7.00;;;21.70;99.90;;;;;;4954664;28;20496;-74
2023/08/18 00:31:24;;;;;;;11.43;5.20;;;21.50;99.90;;;;;;4948087;28;20573;-76
2023/08/18 00:33:51;;;;;;;12.17;7.20;;;21.50;99.90;;;;;;4946513;28;20890;-74
2023/08/18 00:36:18;;;;;;;8.97;6.53;;;21.50;99.90;;;;;;4945534;28;20624;-76
2023/08/18 00:38:45;;;;;;;9.77;6.20;;;21.50;99.90;;;;;;4948112;28;20489;-77
2023/08/18 00:41:13;;;;;;;7.07;5.10;;;21.40;99.90;;;;;;4946983;28;20993;-74
2023/08/18 00:43:40;;;;;;;7.80;5.83;;;21.40;99.90;;;;;;4949976;28;20478;-77
2023/08/18 00:46:08;;;;;;;8.67;6.40;;;21.30;99.90;;;;;;4948826;28;20501;-74
2023/08/18 00:48:37;;;;;;;6.53;5.83;;;21.20;99.90;;;;;;4948295;28;20923;-74
2023/08/18 00:51:05;;;;;;;11.33;5.30;;;;;;;;;;4949598;28;21423;-77
2023/08/18 00:53:32;;;;;;;7.10;5.30;;;21.10;99.90;;;;;;4944195;28;20487;-75
2023/08/18 00:55:59;;;;;;;6.50;5.77;;;21.20;99.90;;;;;;4949792;28;20594;-73
2023/08/18 00:58:29;;;;;;;7.40;6.60;;;21.20;99.90;;;;;;4950601;28;20883;-75
2023/08/18 01:00:56;;;;;;;12.53;5.70;;;21.10;99.90;;;;;;4948862;28;20489;-70
2023/08/18 01:03:23;;;;;;;9.73;6.70;;;21.10;99.90;;;;;;5059288;23;20477;-63
2023/08/18 01:05:50;;;;;;;6.60;5.97;;;21.20;99.90;;;;;;4950212;28;20943;-62
2023/08/18 01:08:17;;;;;;;8.33;6.00;;;21.10;99.90;;;;;;4950483;28;20577;-62
2023/08/18 01:10:49;;;;;;;8.60;6.40;;;;;;;;;;4950087;28;20577;-63
2023/08/18 01:13:26;;;;;;;7.20;6.10;;;21.10;99.90;;;;;;4937790;28;20930;-62
2023/08/18 01:15:57;;;;;;;10.83;6.73;;;21.10;99.90;;;;;;4952433;28;21022;-62
2023/08/18 01:18:25;;;;;;;13.50;6.20;;;;;;;;;;4946735;28;20485;-62
2023/08/18 01:20:55;;;;;;;9.50;5.93;;;21.00;99.90;;;;;;4948298;28;20497;-62
2023/08/18 01:23:36;;;;;;;7.47;5.77;;;21.00;99.90;;;;;;4947056;28;20509;-62
2023/08/18 01:26:03;;;;;;;9.63;5.43;;;20.90;99.90;;;;;;4946934;28;21128;-61
2023/08/18 01:28:30;;;;;;;12.00;5.80;;;20.90;99.90;;;;;;4936527;28;20516;-61
2023/08/18 01:30:58;;;;;;;9.93;6.33;;;20.90;99.90;;;;;;4970611;28;21316;-62
2023/08/18 01:33:33;;;;;;;9.80;5.30;;;20.90;99.90;;;;;;4947690;28;20472;-62
2023/08/18 01:36:04;;;;;;;6.40;5.80;;;20.80;99.90;;;;;;4967452;23;20577;-64
2023/08/18 01:38:34;;;;;;;7.73;5.30;;;20.90;99.90;;;;;;5027806;28;20468;-64
2023/08/18 01:41:01;;;;;;;6.17;5.57;;;20.80;99.90;;;;;;5025412;28;20477;-64
2023/08/18 01:43:30;;;;;;;21.43;7.00;;;20.90;99.90;;;;;;5017213;28;21162;-64
2023/08/18 01:45:57;;;;;;;15.30;5.73;;;20.90;99.90;;;;;;5018475;28;20481;-64
2023/08/18 01:48:24;;;;;;;8.60;5.97;;;20.90;99.90;;;;;;5013766;28;20504;-64
2023/08/18 01:50:51;;;;;;;12.50;6.97;;;20.90;99.90;;;;;;5023314;28;20625;-64
2023/08/18 01:53:17;;;;;;;9.23;5.53;;;21.00;99.90;;;;;;5023786;28;20692;-64
2023/08/18 01:55:46;;;;;;;12.67;5.80;;;21.00;99.90;;;;;;5025918;28;20590;-64
2023/08/18 01:58:13;;;;;;;9.80;5.50;;;;;;;;;;5024484;28;20470;-64
2023/08/18 02:00:40;;;;;;;13.40;6.13;;;21.00;99.90;;;;;;5022934;28;20547;-64
2023/08/18 02:03:08;;;;;;;8.37;5.77;;;21.00;99.90;;;;;;5025973;28;20874;-64
2023/08/18 02:05:39;;;;;;;9.93;5.80;;;21.00;99.90;;;;;;5025295;28;20483;-64
2023/08/18 02:08:06;;;;;;;12.00;7.20;;;21.00;99.90;;;;;;5024846;28;20483;-64
2023/08/18 02:10:33;;;;;;;18.10;5.63;;;21.00;99.90;;;;;;5026670;28;20483;-64
2023/08/18 02:13:02;;;;;;;7.37;5.47;;;21.10;99.90;;;;;;5025666;28;21159;-64
2023/08/18 02:15:28;;;;;;;12.47;5.70;;;21.00;99.90;;;;;;5027674;28;20467;-64
2023/08/18 02:17:55;;;;;;;8.43;6.30;;;21.00;99.90;;;;;;5025217;28;20896;-64
2023/08/18 02:20:22;;;;;;;17.33;5.50;;;21.00;99.90;;;;;;5027912;28;20476;-64
2023/08/18 02:22:49;;;;;;;12.83;5.77;;;21.00;99.90;;;;;;5022612;28;20597;-64
2023/08/18 02:25:16;;;;;;;9.67;5.73;;;21.00;99.90;;;;;;5026872;28;20980;-64
2023/08/18 02:27:43;;;;;;;9.67;5.80;;;21.10;99.90;;;;;;5019607;28;20482;-64
2023/08/18 02:30:12;;;;;;;18.30;6.50;;;21.00;99.90;;;;;;5024779;28;20831;-64
2023/08/18 02:32:39;;;;;;;8.90;5.40;;;21.10;99.90;;;;;;5024106;28;20839;-64
2023/08/18 02:35:07;;;;;;;12.53;5.93;;;21.10;99.90;;;;;;5024724;28;20574;-64
2023/08/18 02:37:34;;;;;;;7.83;5.80;;;21.10;99.90;;;;;;5021832;28;20489;-64
2023/08/18 02:40:01;;;;;;;12.83;5.90;;;21.00;99.90;;;;;;5021547;28;20566;-64
2023/08/18 02:42:28;;;;;;;9.03;5.20;;;21.00;99.90;;;;;;5020249;28;20533;-64
2023/08/18 02:44:54;;;;;;;6.00;5.40;;;20.90;99.90;;;;;;5026159;28;20489;-64
2023/08/18 02:47:23;;;;;;;7.33;4.97;;;20.90;99.90;;;;;;5025284;28;20492;-64
2023/08/18 02:49:51;;;;;;;12.57;5.20;;;20.80;99.90;;;;;;5030410;28;20476;-64
2023/08/18 02:52:18;;;;;;;12.00;5.03;;;20.70;99.90;;;;;;5022529;28;20483;-64
2023/08/18 02:54:45;;;;;;;11.00;6.17;;;20.60;99.90;;;;;;5026865;28;20490;-64
2023/08/18 02:57:12;;;;;;;8.77;5.73;;;20.50;99.90;;;;;;5022314;28;20860;-64
2023/08/18 02:59:39;;;;;;;5.17;4.57;;;20.50;99.90;;;;;;5025796;28;20574;-64
2023/08/18 03:02:06;;;;;;;9.50;4.80;;;;;;;;;;5024379;28;20477;-64
2023/08/18 03:04:34;;;;;;;12.03;5.67;;;20.50;99.90;;;;;;5024665;28;20540;-64
2023/08/18 03:07:01;;;;;;;10.20;5.50;;;20.40;99.90;;;;;;5019426;28;20568;-64
2023/08/18 03:09:28;;;;;;;12.03;6.07;;;20.40;99.90;;;;;;5027145;28;20464;-64
2023/08/18 03:11:55;;;;;;;11.47;6.23;;;20.40;99.90;;;;;;5018754;28;20479;-64
2023/08/18 03:14:22;;;;;;;15.10;5.90;;;20.40;99.90;;;;;;5029297;28;20905;-64
2023/08/18 03:16:49;;;;;;;13.60;5.93;;;20.40;99.90;;;;;;5025764;28;20685;-64
2023/08/18 03:19:15;;;;;;;12.30;5.90;;;20.40;99.90;;;;;;5016201;28;20474;-64
2023/08/18 03:21:44;;;;;;;6.17;4.90;;;20.30;99.90;;;;;;4990682;28;20838;-64
2023/08/18 03:24:13;;;;;;;10.83;5.70;;;20.20;99.90;;;;;;4996217;28;21013;-64
2023/08/18 03:26:40;;;;;;;9.63;6.07;;;20.10;99.90;;;;;;4945746;28;21018;-64
2023/08/18 03:29:06;;;;;;;11.10;5.67;;;20.00;99.90;;;;;;5022966;28;20818;-64
2023/08/18 03:31:33;;;;;;;8.90;6.00;;;20.00;99.90;;;;;;5026723;28;20461;-64
2023/08/18 03:34:00;;;;;;;8.73;6.00;;;20.10;99.90;;;;;;5021090;28;20560;-64
2023/08/18 03:36:27;;;;;;;18.90;6.30;;;20.10;99.90;;;;;;5022800;28;20472;-64
2023/08/18 03:38:56;;;;;;;11.03;5.03;;;20.10;99.90;;;;;;4970926;28;20478;-64
2023/08/18 03:41:22;;;;;;;28.93;5.20;;;20.10;99.90;;;;;;5019821;28;20483;-64
2023/08/18 03:43:49;;;;;;;8.73;5.73;;;20.20;99.90;;;;;;5021006;28;20530;-64
2023/08/18 03:46:21;;;;;;;16.70;5.40;;;20.20;99.90;;;;;;5024151;28;20486;-64
2023/08/18 03:48:48;;;;;;;10.03;5.70;;;20.20;99.90;;;;;;5020416;28;20487;-64
2023/08/18 03:51:15;;;;;;;14.13;5.73;;;20.20;99.90;;;;;;5025700;28;21357;-64
2023/08/18 03:53:43;;;;;;;7.60;5.67;;;20.30;99.90;;;;;;5017769;28;20483;-64
2023/08/18 03:56:11;;;;;;;15.20;5.87;;;20.30;99.90;;;;;;5023437;28;20663;-64
2023/08/18 03:58:38;;;;;;;16.00;6.20;;;20.30;99.90;;;;;;5025814;28;20495;-64
2023/08/18 04:01:08;;;;;;;12.43;6.60;;;20.30;99.90;;;;;;5027384;28;20484;-64
2023/08/18 04:03:36;;;;;;;10.83;6.07;;;20.30;99.90;;;;;;5008451;28;20478;-64
2023/08/18 04:06:04;;;;;;;16.77;6.97;;;20.30;99.90;;;;;;5012987;28;20476;-64
2023/08/18 04:08:33;;;;;;;11.17;6.07;;;20.30;99.90;;;;;;5018898;28;20468;-64
2023/08/18 04:11:00;;;;;;;7.03;5.80;;;20.30;99.90;;;;;;4992645;28;20500;-62
2023/08/18 04:13:28;;;;;;;13.83;6.53;;;20.30;99.90;;;;;;5020470;28;20482;-63
2023/08/18 04:15:55;;;;;;;14.80;6.57;;;20.30;99.90;;;;;;5025831;28;20648;-63
2023/08/18 04:18:22;;;;;;;7.60;6.30;;;20.30;99.90;;;;;;5027794;28;20740;-62
2023/08/18 04:20:49;;;;;;;8.37;5.93;;;20.30;99.90;;;;;;5028081;28;20482;-63
2023/08/18 04:23:16;;;;;;;14.40;6.10;;;20.30;99.90;;;;;;5023760;28;20771;-63
2023/08/18 04:25:43;;;;;;;8.77;6.27;;;20.30;99.90;;;;;;5029591;28;20478;-63
2023/08/18 04:28:12;;;;;;;16.40;6.50;;;20.20;99.90;;;;;;5026394;28;20592;-62
2023/08/18 04:30:40;;;;;;;8.03;5.53;;;20.20;99.90;;;;;;5026515;28;20558;-63
2023/08/18 04:33:07;;;;;;;17.17;6.43;;;20.20;99.90;;;;;;5020183;28;20574;-63
2023/08/18 04:35:34;;;;;;;9.90;5.77;;;;;;;;;;4974293;28;20545;-63
2023/08/18 04:38:01;;;;;;;9.30;5.23;;;20.20;99.90;;;;;;5023150;28;20489;-63
2023/08/18 04:40:28;;;;;;;12.43;5.10;;;20.10;99.90;;;;;;5023842;28;20599;-62
2023/08/18 04:42:55;;;;;;;7.60;5.10;;;20.10;99.90;;;;;;5028521;28;20903;-63
2023/08/18 04:45:23;;;;;;;8.00;5.43;;;20.10;99.90;;;;;;5027088;28;20518;-63
2023/08/18 04:47:51;;;;;;;9.40;6.27;;;20.10;99.90;;;;;;5026423;28;21021;-63
2023/08/18 04:50:18;;;;;;;8.93;5.87;;;20.00;99.90;;;;;;5026782;28;21094;-63
2023/08/18 04:52:45;;;;;;;15.43;5.60;;;20.00;99.90;;;;;;5027934;28;20941;-62
2023/08/18 04:55:12;;;;;;;14.70;4.53;;;19.90;99.90;;;;;;5023367;28;20487;-63
2023/08/18 04:57:39;;;;;;;8.80;6.00;;;19.80;99.90;;;;;;5030245;28;20593;-62
2023/08/18 05:00:09;;;;;;;17.23;6.70;;;19.80;99.90;;;;;;5013142;28;20482;-63
2023/08/18 05:02:35;;;;;;;11.30;5.70;;;19.80;99.90;;;;;;5029389;28;20481;-62
2023/08/18 05:05:05;;;;;;;7.77;5.50;;;19.80;99.90;;;;;;5030171;28;20570;-62
2023/08/18 05:07:32;;;;;;;14.90;6.10;;;19.90;99.90;;;;;;5029793;28;20484;-63
2023/08/18 05:09:59;;;;;;;11.13;6.13;;;19.90;99.90;;;;;;5017558;28;20469;-63
2023/08/18 05:12:26;;;;;;;8.30;5.90;;;19.90;99.90;;;;;;5035372;28;20465;-63
2023/08/18 05:14:53;;;;;;;8.50;5.47;;;20.00;99.90;;;;;;5027116;28;21028;-62
2023/08/18 05:17:20;;;;;;;9.30;5.67;;;;;;;;;;5026781;28;21027;-63
2023/08/18 05:19:47;;;;;;;8.03;6.20;;;20.10;99.90;;;;;;5031173;28;20565;-63
2023/08/18 05:22:15;;;;;;;10.97;5.77;;;20.20;99.90;;;;;;5026229;28;20533;-63
2023/08/18 05:24:42;;;;;;;14.90;5.63;;;20.20;99.90;;;;;;5029146;28;20949;-62
2023/08/18 05:27:09;;;;;;;18.90;5.73;;;20.30;99.90;;;;;;5005396;28;20559;-63
2023/08/18 05:29:36;;;;;;;8.27;6.00;;;20.40;99.90;;;;;;5033353;28;20979;-63
2023/08/18 05:32:03;;;;;;;13.00;6.50;;;20.40;99.90;;;;;;5016537;28;20551;-63
2023/08/18 05:34:29;;;;;;;12.33;5.63;;;20.40;99.90;;;;;;5023483;28;20560;-62
2023/08/18 05:36:56;;;;;;;11.00;6.47;;;20.40;99.90;;;;;;5024854;28;20481;-64
2023/08/18 05:39:24;;;;;;;9.77;6.03;;;20.50;99.90;;;;;;5025488;28;20244;-63
2023/08/18 05:41:52;;;;;;;11.40;6.53;;;;;;;;;;5022970;28;20489;-63
2023/08/18 05:44:19;;;;;;;11.43;6.67;;;20.50;99.90;;;;;;5020920;28;20578;-63
2023/08/18 05:46:46;;;;;;;9.70;6.13;;;20.60;99.90;;;;;;5022755;28;20506;-63
2023/08/18 05:49:12;;;;;;;9.03;6.50;;;20.70;99.90;;;;;;5024784;28;20575;-63
2023/08/18 05:51:42;;;;;;;9.97;6.87;;;20.70;99.90;;;;;;5023306;28;21131;-63
2023/08/18 05:54:09;;;;;;;7.23;6.50;;;20.80;99.90;;;;;;5019752;28;20463;-63
2023/08/18 05:56:38;;;;;;;8.07;7.37;;;20.90;99.90;;;;;;4995569;28;20566;-63
2023/08/18 05:59:06;;;;;;;8.53;7.07;;;21.00;99.90;;;;;;5027480;28;20581;-63
2023/08/18 06:01:34;;;;;;;11.27;6.50;;;;;;;;;;5022033;28;20463;-63
2023/08/18 06:04:01;;;;;;;7.30;6.57;;;21.20;99.90;;;;;;5025843;28;20482;-62
2023/08/18 06:06:28;;;;;;;9.03;7.17;;;21.30;99.90;;;;;;5021079;28;20486;-63
2023/08/18 06:08:55;;;;;;;11.97;8.90;;;21.40;99.90;;;;;;5026807;28;20503;-63
2023/08/18 06:11:23;;;;;;;11.73;8.47;;;21.40;99.90;;;;;;5022347;28;20491;-63
2023/08/18 06:13:52;;;;;;;9.90;8.30;;;21.50;99.90;;;;;;5032545;28;21220;-63
2023/08/18 06:16:19;;;;;;;11.27;8.30;;;21.60;99.90;;;;;;5014809;28;20891;-63
2023/08/18 06:18:46;;;;;;;18.90;9.70;;;21.70;99.90;;;;;;5022287;28;20522;-64
2023/08/18 06:21:12;;;;;;;13.50;8.80;;;21.80;99.90;;;;;;5027007;28;22043;-63
2023/08/18 06:23:40;;;;;;;11.83;9.27;;;21.90;99.90;;;;;;5026450;28;20487;-63
2023/08/18 06:26:07;;;;;;;21.70;9.77;;;;;;;;;;5026917;28;20481;-63
2023/08/18 06:28:34;;;;;;;11.07;8.63;;;22.00;99.90;;;;;;5017482;28;20488;-62
2023/08/18 06:31:06;;;;;;;11.90;8.73;;;22.10;99.90;;;;;;5019179;28;20582;-63
2023/08/18 06:33:34;;;;;;;12.73;9.20;;;22.30;99.90;;;;;;5020380;28;20497;-62
2023/08/18 06:36:01;;;;;;;13.83;9.47;;;22.40;99.90;;;;;;5014843;28;21001;-62
2023/08/18 06:38:28;;;;;;;10.67;9.40;;;;;;;;;;5020702;28;20463;-62
2023/08/18 06:40:55;;;;;;;11.73;9.17;;;22.70;99.90;;;;;;5026992;28;20948;-62
2023/08/18 06:43:22;;;;;;;11.27;8.97;;;22.80;99.90;;;;;;5025512;28;20448;-63
2023/08/18 06:45:50;;;;;;;12.20;9.27;;;22.90;99.90;;;;;;5028781;28;20893;-62
2023/08/18 06:48:18;;;;;;;18.20;9.57;;;23.10;99.90;;;;;;5020232;28;20574;-63
2023/08/18 06:50:45;;;;;;;18.23;9.20;;;23.20;99.90;;;;;;5030308;28;20527;-62
2023/08/18 06:53:12;;;;;;;11.60;8.60;;;23.30;99.90;;;;;;5018085;28;20482;-62
2023/08/18 06:55:39;;;;;;;14.10;9.13;;;23.50;99.90;;;;;;4993091;28;20824;-62
2023/08/18 06:58:06;;;;;;;12.13;8.83;;;23.70;99.90;;;;;;5021959;28;20457;-62
2023/08/18 07:00:33;;;;;;;10.87;9.20;;;23.90;99.90;;;;;;5025908;28;20460;-63
2023/08/18 07:02:59;;;;;;;12.50;7.83;;;24.10;99.90;;;;;;5021333;28;20509;-62
2023/08/18 07:05:29;;;;;;;15.27;8.87;;;24.50;99.90;;;;;;5025163;28;20474;-61
2023/08/18 07:07:56;;;;;;;15.50;7.90;;;24.80;99.90;;;;;;5021196;28;20854;-62
2023/08/18 07:10:23;;;;;;;9.50;8.20;;;25.10;99.90;;;;;;4971391;28;20815;-63
2023/08/18 07:12:50;;;;;;;9.47;8.47;;;25.40;99.90;;;;;;5021698;28;20466;-62
2023/08/18 07:15:17;;;;;;;9.40;8.40;;;25.70;99.90;;;;;;5025398;28;20481;-63
2023/08/18 07:17:44;;;;;;;10.73;9.43;;;25.90;99.90;;;;;;5028852;28;20525;-63
2023/08/18 07:20:12;;;;;;;27.57;9.90;;;26.10;99.90;;;;;;5024107;28;20453;-63
2023/08/18 07:22:40;;;;;;;14.97;9.67;;;26.20;99.90;;;;;;5023270;28;20726;-63
2023/08/18 07:25:10;;;;;;;12.57;10.10;;;26.30;99.90;;;;;;5022656;28;21076;-63
2023/08/18 07:27:37;;;;;;;11.60;9.47;;;26.40;99.90;;;;;;5025962;28;20992;-63
2023/08/18 07:30:06;;;;;;;16.50;9.47;;;26.50;99.90;;;;;;5021755;28;20489;-63
2023/08/18 07:32:33;;;;;;;17.83;10.00;;;26.70;99.90;;;;;;5025484;28;20453;-63
2023/08/18 07:34:59;;;;;;;12.60;9.53;;;26.80;99.90;;;;;;5017683;28;20495;-62
2023/08/18 07:37:27;;;;;;;16.53;10.50;;;26.90;99.90;;;;;;5008973;28;20538;-62
2023/08/18 07:39:55;;;;;;;18.00;11.83;;;27.00;99.90;;;;;;4930225;28;20553;-63
2023/08/18 07:42:22;;;;;;;14.10;10.70;;;27.00;99.90;;;;;;5008158;28;20903;-62
2023/08/18 07:44:49;;;;;;;11.23;10.07;;;27.10;99.90;;;;;;5023821;28;20454;-63
2023/08/18 07:47:16;;;;;;;11.07;9.97;;;27.30;99.90;;;;;;5024302;28;20578;-63
2023/08/18 07:49:45;;;;;;;9.97;9.07;;;27.50;99.90;;;;;;5020589;28;21147;-63
2023/08/18 07:52:12;;;;;;;10.23;9.07;;;27.70;99.90;;;;;;5027934;28;20950;-64
2023/08/18 07:54:39;;;;;;;9.93;8.80;;;27.80;99.90;;;;;;5026379;28;20922;-63
2023/08/18 07:57:07;;;;;;;11.17;8.63;;;28.00;99.90;;;;;;5028773;28;20458;-63
2023/08/18 07:59:34;;;;;;;11.37;8.60;;;28.10;99.90;;;;;;5021632;28;20559;-63
2023/08/18 08:02:02;;;;;;;11.97;8.37;;;28.20;99.90;;;;;;4980398;28;20537;-64
2023/08/18 08:04:29;;;;;;;13.43;9.17;;;28.30;99.90;;;;;;5007217;28;20469;-64
2023/08/18 08:06:56;;;;;;;10.70;9.00;;;28.50;99.90;;;;;;5029116;28;20468;-64
2023/08/18 08:09:24;;;;;;;10.67;9.23;;;28.50;99.90;;;;;;4963358;28;20468;-64
2023/08/18 08:11:51;;;;;;;12.53;8.70;;;28.70;99.90;;;;;;4933769;28;20460;-63
2023/08/18 08:14:20;;;;;;;11.60;8.70;;;28.90;99.90;;;;;;5025099;28;20488;-63
2023/08/18 08:16:47;;;;;;;10.70;9.20;;;29.00;99.90;;;;;;5028043;28;21446;-63
2023/08/18 08:19:14;;;;;;;10.40;9.23;;;29.20;99.90;;;;;;5025705;28;20864;-63
2023/08/18 08:21:41;;;;;;;10.60;9.30;;;29.30;99.90;;;;;;5028648;28;20765;-63
2023/08/18 08:24:08;;;;;;;9.77;7.67;;;29.50;99.90;;;;;;5027667;28;20462;-64
2023/08/18 08:26:35;;;;;;;9.93;7.80;;;29.50;99.90;;;;;;5029334;28;20457;-64
2023/08/18 08:29:02;;;;;;;8.30;7.60;;;29.70;99.90;;;;;;5032328;28;20771;-64
2023/08/18 08:31:31;;;;;;;9.37;8.37;;;29.90;99.90;;;;;;5024793;28;20941;-63
2023/08/18 08:33:58;;;;;;;11.63;8.67;;;30.10;99.90;;;;;;5031695;28;20895;-64
2023/08/18 08:36:32;;;;;;;8.70;7.90;;;30.30;99.90;;;;;;5026932;28;20502;-63
2023/08/18 08:38:59;;;;;;;9.17;7.97;;;30.50;99.90;;;;;;5027248;28;20584;-63
2023/08/18 08:41:26;;;;;;;11.97;9.10;;;30.50;99.90;;;;;;5021549;28;20472;-63
2023/08/18 08:43:53;;;;;;;9.80;8.80;;;30.50;99.90;;;;;;5029350;28;20946;-64
2023/08/18 08:46:21;;;;;;;10.07;7.87;;;30.50;99.90;;;;;;5024885;28;20491;-64
2023/08/18 08:48:52;;;;;;;8.57;7.60;;;30.50;99.90;;;;;;4989375;28;21026;-64
2023/08/18 08:51:22;;;;;;;9.43;8.53;;;30.30;99.90;;;;;;5021561;28;20558;-67
2023/08/18 08:53:54;;;;;;;21.13;8.97;;;30.00;99.90;;;;;;5029954;28;20593;-65
2023/08/18 08:56:22;;;;;;;12.07;8.70;;;30.00;99.90;;;;;;5022465;28;20894;-66
2023/08/18 08:58:49;;;;;;;14.60;7.80;;;29.90;99.90;;;;;;5030500;28;20581;-66
2023/08/18 09:01:16;;;;;;;9.10;7.50;;;30.20;99.90;;;;;;5023424;28;20471;-66
2023/08/18 09:03:45;;;;;;;15.03;7.37;;;30.50;99.90;;;;;;5026914;28;20855;-66
2023/08/18 09:06:13;;;;;;;8.90;8.10;;;30.60;99.90;;;;;;5026407;28;20507;-65
2023/08/18 09:08:41;;;;;;;10.17;8.43;;;31.00;99.90;;;;;;5027473;28;20513;-65
2023/08/18 09:11:08;;;;;;;8.47;7.77;;;31.10;99.90;;;;;;5027203;28;20507;-65
2023/08/18 09:13:35;;;;;;;15.67;8.23;;;31.30;99.90;;;;;;4993678;28;20567;-66
2023/08/18 09:16:04;;;;;;;9.60;8.70;;;31.40;99.90;;;;;;5028647;28;20594;-65
2023/08/18 09:18:32;;;;;;;8.40;7.43;;;31.50;99.90;;;;;;5028233;28;20886;-65
2023/08/18 09:21:00;;;;;;;11.13;8.93;;;31.60;99.90;;;;;;5023726;28;20544;-65
2023/08/18 09:23:29;;;;;;;18.03;9.50;;;31.70;99.90;;;;;;5027714;28;20491;-66
2023/08/18 09:25:57;;;;;;;8.50;7.50;;;31.70;99.90;;;;;;5030417;28;20487;-65
2023/08/18 09:28:24;;;;;;;9.53;8.47;;;31.60;99.90;;;;;;5025841;28;20491;-65
2023/08/18 09:30:52;;;;;;;9.73;7.60;;;31.60;99.90;;;;;;5025679;28;20575;-65
2023/08/18 09:33:22;;;;;;;11.40;8.30;;;31.70;99.90;;;;;;4956828;28;20473;-65
2023/08/18 09:35:57;;;;;;;9.57;7.60;;;31.90;99.90;;;;;;5017352;28;21003;-65
2023/08/18 09:38:25;;;;;;;7.73;6.93;;;32.10;99.90;;;;;;5021471;28;22025;-65
2023/08/18 09:40:56;;;;;;;8.40;7.30;;;32.30;99.90;;;;;;5020447;28;20499;-65
2023/08/18 09:43:23;;;;;;;8.43;7.30;;;32.50;99.90;;;;;;5022946;28;20929;-66
2023/08/18 09:45:51;;;;;;;10.37;8.57;;;32.40;99.40;;;;;;5027989;28;20485;-65
2023/08/18 09:48:19;;;;;;;11.80;8.03;;;;;;;;;;5022614;28;20489;-65
2023/08/18 09:50:50;;;;;;;9.17;8.30;;;32.30;99.80;;;;;;5032072;28;20551;-65
2023/08/18 09:53:18;;;;;;;12.77;7.70;;;32.30;98.50;;;;;;5023419;28;20575;-65
2023/08/18 09:55:45;;;;;;;8.67;7.77;;;32.40;99.80;;;;;;5030000;28;20487;-65
2023/08/18 09:58:20;;;;;;;7.70;6.93;;;32.60;99.70;;;;;;5022257;28;20576;-65
2023/08/18 10:00:54;;;;;;;11.97;7.50;;;32.80;99.40;;;;;;5030937;28;20839;-63
2023/08/18 10:03:25;;;;;;;8.77;7.07;;;33.00;99.60;;;;;;5021222;28;20489;-63
2023/08/18 10:05:53;;;;;;;13.70;8.47;;;32.90;98.20;;;;;;5029781;28;20487;-63
2023/08/18 10:08:22;;;;;;;9.13;8.23;;;32.50;97.90;;;;;;5021405;28;20792;-63
2023/08/18 10:10:50;;;;;;;9.30;8.07;;;32.10;96.90;;;;;;5024719;28;20905;-63
2023/08/18 10:13:19;;;;;;;12.93;8.80;;;31.70;97.20;;;;;;5022893;28;20546;-62
2023/08/18 10:15:47;;;;;;;9.53;7.20;;;31.60;97.70;;;;;;5029725;28;21261;-62
2023/08/18 10:18:14;;;;;;;8.20;7.40;;;31.80;98.50;;;;;;5022249;28;20463;-64
2023/08/18 10:20:59;;;;;;;19.90;9.03;;;31.40;97.70;;;;;;5026332;28;20518;-63
2023/08/18 10:23:29;;;;;;;9.50;8.47;;;31.20;98.10;;;;;;5022976;28;20508;-61
2023/08/18 10:25:57;;;;;;;15.07;9.33;;;31.00;97.90;;;;;;5026654;28;20519;-63
2023/08/18 10:28:30;;;;;;;9.90;7.30;;;31.20;99.00;;;;;;5025025;28;21020;-63
2023/08/18 10:31:00;;;;;;;9.17;8.30;;;31.40;98.70;;;;;;5028443;28;20476;-62
2023/08/18 10:33:32;;;;;;;10.43;7.70;;;31.40;98.00;;;;;;5025897;28;20862;-62
2023/08/18 10:36:02;;;;;;;15.97;9.77;;;31.70;98.40;;;;;;5026702;28;20835;-62
2023/08/18 10:38:29;;;;;;;10.83;7.33;;;31.60;97.00;;;;;;5022494;28;20569;-63
2023/08/18 10:40:57;;;;;;;10.30;7.73;;;31.50;97.00;;;;;;4951483;28;20590;-63
2023/08/18 10:43:28;;;;;;;11.93;8.20;;;31.60;98.40;;;;;;4964179;28;20603;-63
2023/08/18 10:45:59;;;;;;;15.60;8.77;;;31.40;98.40;;;;;;5002860;28;20515;-63
2023/08/18 10:48:30;;;;;;;11.83;7.13;;;31.40;97.30;;;;;;5028677;28;20485;-62
2023/08/18 10:50:57;;;;;;;9.63;8.07;;;31.80;98.30;;;;;;5027849;28;20601;-63
2023/08/18 10:53:24;;;;;;;8.57;7.50;;;32.10;97.70;;;;;;4985714;28;20494;-63
2023/08/18 10:55:53;;;;;;;13.03;7.83;;;32.20;98.40;;;;;;4959297;28;20851;-62
2023/08/18 10:58:21;;;;;;;7.63;6.67;;;32.00;96.30;;;;;;5013283;28;20586;-63
2023/08/18 11:00:50;;;;;;;9.07;6.80;;;31.90;95.80;;;;;;5024115;28;20572;-63
2023/08/18 11:03:17;;;;;;;10.30;7.37;;;31.80;96.40;;;;;;5024753;28;20852;-63
2023/08/18 11:05:44;;;;;;;7.03;6.33;;;31.90;96.70;;;;;;5024253;28;20484;-63
2023/08/18 11:08:11;;;;;;;6.67;6.00;;;31.90;96.00;;;;;;5030355;28;20590;-63
2023/08/18 11:10:39;;;;;;;11.83;7.67;;;32.10;98.10;;;;;;5024251;28;20662;-62
2023/08/18 11:13:10;;;;;;;8.60;7.10;;;32.00;94.70;;;;;;5030609;28;20665;-63
2023/08/18 11:15:37;;;;;;;11.23;6.67;;;32.00;96.10;;;;;;5021767;28;20618;-63
2023/08/18 11:18:07;;;;;;;12.07;6.90;;;31.80;95.50;;;;;;5026550;28;20839;-62
2023/08/18 11:20:36;;;;;;;8.10;6.57;;;32.00;96.30;;;;;;5016127;28;20494;-63
2023/08/18 11:23:05;;;;;;;8.80;6.90;;;32.10;96.30;;;;;;4975758;28;20471;-62
2023/08/18 11:25:32;;;;;;;11.20;7.27;;;32.00;96.90;;;;;;5008741;28;20592;-63
2023/08/18 11:27:59;;;;;;;12.00;7.03;;;32.00;95.50;;;;;;5036801;28;20970;-63
2023/08/18 11:30:27;;;;;;;11.20;6.20;;;31.80;95.00;;;;;;5018928;28;20481;-63
2023/08/18 11:32:54;;;;;;;8.80;7.13;;;31.80;94.90;;;;;;5026797;28;20481;-63
2023/08/18 11:35:24;;;;;;;12.73;6.70;;;31.80;95.00;;;;;;5018176;28;20485;-63
2023/08/18 11:37:52;;;;;;;9.57;6.13;;;31.80;95.90;;;;;;5023884;28;20863;-63
2023/08/18 11:40:22;;;;;;;7.33;6.63;;;32.10;97.10;;;;;;5023309;28;20997;-63
2023/08/18 11:42:50;;;;;;;6.67;5.93;;;32.60;95.70;;;;;;5023323;28;20596;-63
2023/08/18 11:45:19;;;;;;;8.83;6.23;;;;;;;;;;4991706;28;20599;-63
2023/08/18 11:47:47;;;;;;;7.63;6.13;;;32.50;93.60;;;;;;5023469;28;20907;-63
2023/08/18 11:50:19;;;;;;;7.40;6.70;;;32.80;96.40;;;;;;4944255;28;20574;-63
2023/08/18 11:52:52;;;;;;;9.40;6.60;;;32.70;93.90;;;;;;5004417;28;20483;-63
2023/08/18 11:55:31;;;;;;;12.03;5.87;;;32.80;92.90;;;;;;5021147;28;20483;-62
2023/08/18 11:57:58;;;;;;;20.27;6.73;;;32.60;94.50;;;;;;5024164;28;20485;-63
2023/08/18 12:00:34;;;;;;;11.47;8.20;;;32.50;94.40;;;;;;5022762;28;20583;-63
2023/08/18 12:03:02;;;;;;;13.23;7.13;;;32.30;94.30;;;;;;5023395;28;20901;-63
2023/08/18 12:05:30;;;;;;;7.57;5.60;;;32.30;93.50;;;;;;5021797;28;21048;-65
2023/08/18 12:08:00;;;;;;;17.80;7.10;;;32.20;93.30;;;;;;5013558;28;20489;-63
2023/08/18 12:10:27;;;;;;;11.90;6.37;;;32.60;94.80;;;;;;5014977;28;20513;-63
2023/08/18 12:12:56;;;;;;;9.10;6.10;;;32.70;92.80;;;;;;5023792;28;20552;-63
2023/08/18 12:15:26;;;;;;;9.37;5.87;;;33.20;96.00;;;;;;5017969;28;20563;-63
2023/08/18 12:17:53;;;;;;;7.80;5.97;;;33.10;95.20;;;;;;5013934;28;20488;-63
2023/08/18 12:20:21;;;;;;;9.57;7.27;;;33.00;94.20;;;;;;4995699;28;21006;-63
2023/08/18 12:22:49;;;;;;;9.83;6.30;;;33.10;93.60;;;;;;5021559;28;20483;-63
2023/08/18 12:25:18;;;;;;;6.93;6.10;;;33.00;92.50;;;;;;5023909;28;20475;-64
2023/08/18 12:27:46;;;;;;;9.00;6.83;;;33.00;94.20;;;;;;4983369;28;20484;-63
2023/08/18 12:30:13;;;;;;;10.20;6.00;;;33.00;94.90;;;;;;4985250;28;20487;-63
2023/08/18 12:32:40;;;;;;;11.90;6.13;;;33.00;93.00;;;;;;5016787;28;20475;-63
2023/08/18 12:35:08;;;;;;;8.03;5.20;;;32.60;92.30;;;;;;4950047;28;20663;-65
2023/08/18 12:37:35;;;;;;;8.10;5.30;;;32.90;92.60;;;;;;4916324;28;20572;-63
2023/08/18 12:40:02;;;;;;;8.50;6.27;;;33.00;92.60;;;;;;4943636;28;20484;-63
2023/08/18 12:42:31;;;;;;;8.20;5.30;;;33.40;94.20;;;;;;5020496;28;20871;-64
2023/08/18 12:44:58;;;;;;;9.90;6.30;;;33.60;91.80;;;;;;5027418;28;20498;-64
2023/08/18 12:47:25;;;;;;;10.73;6.80;;;33.70;93.30;;;;;;5023869;28;20491;-64
2023/08/18 12:49:52;;;;;;;9.37;5.93;;;34.00;94.10;;;;;;5031363;28;20724;-63